sensor_id;sensor_type;location;lat;lon;timestamp;P1;durP1;ratioP1;P2;durP2;ratioP2
66802;SDS011;53705;49.860;8.744;2023-05-07T00:00:53;3.60;;;1.55;;
66802;SDS011;53705;49.860;8.744;2023-05-07T00:03:21;4.60;;;3.13;;
66802;SDS011;53705;49.860;8.744;2023-05-07T00:05:49;3.00;;;1.27;;
66802;SDS011;53705;49.860;8.744;2023-05-07T00:08:19;5.38;;;1.75;;
66802;SDS011;53705;49.860;8.744;2023-05-07T00:10:47;4.55;;;2.88;;
66802;SDS011;53705;49.860;8.744;2023-05-07T00:13:15;3.63;;;1.60;;
66802;SDS011;53705;49.860;8.744;2023-05-07T00:15:43;5.07;;;1.77;;
66802;SDS011;53705;49.860;8.744;2023-05-07T00:18:12;4.68;;;2.40;;
66802;SDS011;53705;49.860;8.744;2023-05-07T00:20:39;5.78;;;2.17;;
66802;SDS011;53705;49.860;8.744;2023-05-07T00:23:07;5.28;;;1.92;;
66802;SDS011;53705;49.860;8.744;2023-05-07T00:25:35;3.50;;;1.50;;
66802;SDS011;53705;49.860;8.744;2023-05-07T00:28:03;5.63;;;2.25;;
66802;SDS011;53705;49.860;8.744;2023-05-07T00:30:31;5.03;;;1.88;;
66802;SDS011;53705;49.860;8.744;2023-05-07T00:32:59;4.95;;;2.15;;
66802;SDS011;53705;49.860;8.744;2023-05-07T00:35:28;5.93;;;1.98;;
66802;SDS011;53705;49.860;8.744;2023-05-07T00:37:56;4.03;;;1.63;;
66802;SDS011;53705;49.860;8.744;2023-05-07T00:40:24;4.78;;;2.13;;
66802;SDS011;53705;49.860;8.744;2023-05-07T00:42:51;5.03;;;2.67;;
66802;SDS011;53705;49.860;8.744;2023-05-07T00:45:23;4.88;;;2.38;;
66802;SDS011;53705;49.860;8.744;2023-05-07T00:47:54;7.13;;;3.38;;
66802;SDS011;53705;49.860;8.744;2023-05-07T00:50:21;5.95;;;3.13;;
66802;SDS011;53705;49.860;8.744;2023-05-07T00:52:50;4.40;;;2.22;;
66802;SDS011;53705;49.860;8.744;2023-05-07T00:55:18;7.20;;;2.63;;
66802;SDS011;53705;49.860;8.744;2023-05-07T00:57:47;6.93;;;4.93;;
66802;SDS011;53705;49.860;8.744;2023-05-07T01:00:15;5.68;;;2.78;;
66802;SDS011;53705;49.860;8.744;2023-05-07T01:02:43;5.13;;;2.72;;
66802;SDS011;53705;49.860;8.744;2023-05-07T01:05:14;6.40;;;2.95;;
66802;SDS011;53705;49.860;8.744;2023-05-07T01:07:44;5.80;;;2.72;;
66802;SDS011;53705;49.860;8.744;2023-05-07T01:10:13;7.20;;;2.92;;
66802;SDS011;53705;49.860;8.744;2023-05-07T01:12:42;8.13;;;2.83;;
66802;SDS011;53705;49.860;8.744;2023-05-07T01:15:12;6.72;;;4.78;;
66802;SDS011;53705;49.860;8.744;2023-05-07T01:17:41;6.03;;;4.78;;
66802;SDS011;53705;49.860;8.744;2023-05-07T01:20:17;6.78;;;2.65;;
66802;SDS011;53705;49.860;8.744;2023-05-07T01:22:49;5.72;;;2.97;;
66802;SDS011;53705;49.860;8.744;2023-05-07T01:25:17;6.97;;;3.53;;
66802;SDS011;53705;49.860;8.744;2023-05-07T01:27:49;6.57;;;3.28;;
66802;SDS011;53705;49.860;8.744;2023-05-07T01:30:21;6.20;;;3.50;;
66802;SDS011;53705;49.860;8.744;2023-05-07T01:32:50;5.68;;;3.45;;
66802;SDS011;53705;49.860;8.744;2023-05-07T01:35:20;7.20;;;4.97;;
66802;SDS011;53705;49.860;8.744;2023-05-07T01:37:51;5.80;;;3.25;;
66802;SDS011;53705;49.860;8.744;2023-05-07T01:40:19;5.82;;;4.70;;
66802;SDS011;53705;49.860;8.744;2023-05-07T01:42:47;6.38;;;3.25;;
66802;SDS011;53705;49.860;8.744;2023-05-07T01:45:15;6.50;;;3.33;;
66802;SDS011;53705;49.860;8.744;2023-05-07T01:47:44;7.07;;;3.53;;
66802;SDS011;53705;49.860;8.744;2023-05-07T01:50:12;6.35;;;4.18;;
66802;SDS011;53705;49.860;8.744;2023-05-07T01:52:41;5.97;;;3.17;;
66802;SDS011;53705;49.860;8.744;2023-05-07T01:55:11;7.10;;;3.70;;
66802;SDS011;53705;49.860;8.744;2023-05-07T01:57:39;6.88;;;3.47;;
66802;SDS011;53705;49.860;8.744;2023-05-07T02:00:08;7.25;;;4.65;;
66802;SDS011;53705;49.860;8.744;2023-05-07T02:02:44;7.60;;;5.93;;
66802;SDS011;53705;49.860;8.744;2023-05-07T02:05:35;8.23;;;4.32;;
66802;SDS011;53705;49.860;8.744;2023-05-07T02:08:10;9.15;;;5.22;;
66802;SDS011;53705;49.860;8.744;2023-05-07T02:10:39;6.50;;;4.22;;
66802;SDS011;53705;49.860;8.744;2023-05-07T02:13:07;8.02;;;4.47;;
66802;SDS011;53705;49.860;8.744;2023-05-07T02:15:36;9.45;;;5.40;;
66802;SDS011;53705;49.860;8.744;2023-05-07T02:18:05;7.68;;;4.60;;
66802;SDS011;53705;49.860;8.744;2023-05-07T02:20:33;6.63;;;3.67;;
66802;SDS011;53705;49.860;8.744;2023-05-07T02:23:02;7.20;;;3.85;;
66802;SDS011;53705;49.860;8.744;2023-05-07T02:25:31;5.07;;;3.13;;
66802;SDS011;53705;49.860;8.744;2023-05-07T02:28:00;7.65;;;3.65;;
66802;SDS011;53705;49.860;8.744;2023-05-07T02:30:39;5.07;;;2.70;;
66802;SDS011;53705;49.860;8.744;2023-05-07T02:33:08;5.93;;;3.88;;
66802;SDS011;53705;49.860;8.744;2023-05-07T02:35:36;5.18;;;2.70;;
66802;SDS011;53705;49.860;8.744;2023-05-07T02:38:04;7.35;;;4.75;;
66802;SDS011;53705;49.860;8.744;2023-05-07T02:40:32;5.85;;;3.50;;
66802;SDS011;53705;49.860;8.744;2023-05-07T02:43:06;6.93;;;5.10;;
66802;SDS011;53705;49.860;8.744;2023-05-07T02:45:34;6.55;;;4.35;;
66802;SDS011;53705;49.860;8.744;2023-05-07T02:48:04;6.50;;;3.42;;
66802;SDS011;53705;49.860;8.744;2023-05-07T02:50:32;6.95;;;3.83;;
66802;SDS011;53705;49.860;8.744;2023-05-07T02:53:00;7.68;;;3.83;;
66802;SDS011;53705;49.860;8.744;2023-05-07T02:55:28;7.38;;;3.70;;
66802;SDS011;53705;49.860;8.744;2023-05-07T02:57:56;5.45;;;4.30;;
66802;SDS011;53705;49.860;8.744;2023-05-07T03:00:26;6.70;;;4.93;;
66802;SDS011;53705;49.860;8.744;2023-05-07T03:05:57;7.88;;;4.70;;
66802;SDS011;53705;49.860;8.744;2023-05-07T03:08:25;5.32;;;2.35;;
66802;SDS011;53705;49.860;8.744;2023-05-07T03:10:52;7.55;;;5.38;;
66802;SDS011;53705;49.860;8.744;2023-05-07T03:13:20;3.97;;;2.45;;
66802;SDS011;53705;49.860;8.744;2023-05-07T03:15:49;5.90;;;2.10;;
66802;SDS011;53705;49.860;8.744;2023-05-07T03:18:17;5.03;;;2.63;;
66802;SDS011;53705;49.860;8.744;2023-05-07T03:20:45;6.05;;;1.88;;
66802;SDS011;53705;49.860;8.744;2023-05-07T03:23:15;5.72;;;3.53;;
66802;SDS011;53705;49.860;8.744;2023-05-07T03:25:42;5.38;;;1.38;;
66802;SDS011;53705;49.860;8.744;2023-05-07T03:28:10;4.57;;;1.75;;
66802;SDS011;53705;49.860;8.744;2023-05-07T03:30:51;4.60;;;2.67;;
66802;SDS011;53705;49.860;8.744;2023-05-07T03:33:19;5.22;;;3.22;;
66802;SDS011;53705;49.860;8.744;2023-05-07T03:35:47;4.05;;;1.27;;
66802;SDS011;53705;49.860;8.744;2023-05-07T03:38:19;3.58;;;1.73;;
66802;SDS011;53705;49.860;8.744;2023-05-07T03:40:47;4.57;;;2.70;;
66802;SDS011;53705;49.860;8.744;2023-05-07T03:43:15;4.00;;;1.67;;
66802;SDS011;53705;49.860;8.744;2023-05-07T03:45:48;5.80;;;1.67;;
66802;SDS011;53705;49.860;8.744;2023-05-07T03:48:22;3.67;;;1.95;;
66802;SDS011;53705;49.860;8.744;2023-05-07T03:50:52;4.72;;;1.70;;
66802;SDS011;53705;49.860;8.744;2023-05-07T03:53:20;5.68;;;3.47;;
66802;SDS011;53705;49.860;8.744;2023-05-07T03:55:48;6.25;;;2.88;;
66802;SDS011;53705;49.860;8.744;2023-05-07T03:58:16;3.55;;;1.45;;
66802;SDS011;53705;49.860;8.744;2023-05-07T04:00:44;5.00;;;2.28;;
66802;SDS011;53705;49.860;8.744;2023-05-07T04:03:25;6.18;;;4.97;;
66802;SDS011;53705;49.860;8.744;2023-05-07T04:05:55;8.38;;;4.70;;
66802;SDS011;53705;49.860;8.744;2023-05-07T04:08:23;6.20;;;2.88;;
66802;SDS011;53705;49.860;8.744;2023-05-07T04:10:56;6.40;;;3.55;;
66802;SDS011;53705;49.860;8.744;2023-05-07T04:13:27;6.85;;;3.47;;
66802;SDS011;53705;49.860;8.744;2023-05-07T04:15:55;8.07;;;3.67;;
66802;SDS011;53705;49.860;8.744;2023-05-07T04:18:26;6.93;;;2.72;;
66802;SDS011;53705;49.860;8.744;2023-05-07T04:20:54;6.72;;;2.72;;
66802;SDS011;53705;49.860;8.744;2023-05-07T04:23:22;7.20;;;2.97;;
66802;SDS011;53705;49.860;8.744;2023-05-07T04:25:50;4.35;;;2.30;;
66802;SDS011;53705;49.860;8.744;2023-05-07T04:28:31;9.43;;;3.03;;
66802;SDS011;53705;49.860;8.744;2023-05-07T04:30:59;7.53;;;3.20;;
66802;SDS011;53705;49.860;8.744;2023-05-07T04:33:29;8.75;;;3.08;;
66802;SDS011;53705;49.860;8.744;2023-05-07T04:35:57;5.40;;;2.53;;
66802;SDS011;53705;49.860;8.744;2023-05-07T04:38:30;3.88;;;2.13;;
66802;SDS011;53705;49.860;8.744;2023-05-07T04:41:02;6.80;;;3.28;;
66802;SDS011;53705;49.860;8.744;2023-05-07T04:43:30;6.25;;;3.17;;
66802;SDS011;53705;49.860;8.744;2023-05-07T04:45:58;5.97;;;2.85;;
66802;SDS011;53705;49.860;8.744;2023-05-07T04:48:26;5.75;;;2.95;;
66802;SDS011;53705;49.860;8.744;2023-05-07T04:50:58;6.55;;;2.92;;
66802;SDS011;53705;49.860;8.744;2023-05-07T04:53:26;4.78;;;3.17;;
66802;SDS011;53705;49.860;8.744;2023-05-07T04:55:55;5.28;;;4.57;;
66802;SDS011;53705;49.860;8.744;2023-05-07T04:58:28;7.28;;;3.65;;
66802;SDS011;53705;49.860;8.744;2023-05-07T05:00:58;5.72;;;3.03;;
66802;SDS011;53705;49.860;8.744;2023-05-07T05:03:27;7.35;;;2.72;;
66802;SDS011;53705;49.860;8.744;2023-05-07T05:05:58;5.35;;;3.17;;
66802;SDS011;53705;49.860;8.744;2023-05-07T05:08:29;7.22;;;3.97;;
66802;SDS011;53705;49.860;8.744;2023-05-07T05:10:57;5.60;;;3.22;;
66802;SDS011;53705;49.860;8.744;2023-05-07T05:13:25;5.10;;;2.75;;
66802;SDS011;53705;49.860;8.744;2023-05-07T05:15:54;6.55;;;2.35;;
66802;SDS011;53705;49.860;8.744;2023-05-07T05:18:24;4.75;;;2.78;;
66802;SDS011;53705;49.860;8.744;2023-05-07T05:20:52;5.22;;;2.50;;
66802;SDS011;53705;49.860;8.744;2023-05-07T05:23:21;6.40;;;2.20;;
66802;SDS011;53705;49.860;8.744;2023-05-07T05:25:49;5.32;;;3.63;;
66802;SDS011;53705;49.860;8.744;2023-05-07T05:28:17;4.80;;;2.90;;
66802;SDS011;53705;49.860;8.744;2023-05-07T05:30:45;5.70;;;2.55;;
66802;SDS011;53705;49.860;8.744;2023-05-07T05:33:13;7.40;;;4.65;;
66802;SDS011;53705;49.860;8.744;2023-05-07T05:35:43;4.97;;;2.72;;
66802;SDS011;53705;49.860;8.744;2023-05-07T05:38:14;5.97;;;2.90;;
66802;SDS011;53705;49.860;8.744;2023-05-07T05:40:46;6.72;;;2.80;;
66802;SDS011;53705;49.860;8.744;2023-05-07T05:43:16;5.05;;;2.53;;
66802;SDS011;53705;49.860;8.744;2023-05-07T05:45:45;6.05;;;3.13;;
66802;SDS011;53705;49.860;8.744;2023-05-07T05:48:13;5.57;;;4.53;;
66802;SDS011;53705;49.860;8.744;2023-05-07T05:50:43;5.97;;;3.08;;
66802;SDS011;53705;49.860;8.744;2023-05-07T05:53:11;4.70;;;2.53;;
66802;SDS011;53705;49.860;8.744;2023-05-07T05:55:38;6.07;;;2.33;;
66802;SDS011;53705;49.860;8.744;2023-05-07T05:58:08;4.75;;;2.40;;
66802;SDS011;53705;49.860;8.744;2023-05-07T06:00:39;4.60;;;2.67;;
66802;SDS011;53705;49.860;8.744;2023-05-07T06:03:07;6.88;;;2.88;;
66802;SDS011;53705;49.860;8.744;2023-05-07T06:05:35;6.78;;;2.72;;
66802;SDS011;53705;49.860;8.744;2023-05-07T06:08:04;5.65;;;4.35;;
66802;SDS011;53705;49.860;8.744;2023-05-07T06:10:33;6.53;;;2.92;;
66802;SDS011;53705;49.860;8.744;2023-05-07T06:13:04;5.40;;;2.70;;
66802;SDS011;53705;49.860;8.744;2023-05-07T06:15:35;7.68;;;3.17;;
66802;SDS011;53705;49.860;8.744;2023-05-07T06:18:08;5.78;;;2.35;;
66802;SDS011;53705;49.860;8.744;2023-05-07T06:20:36;5.90;;;4.60;;
66802;SDS011;53705;49.860;8.744;2023-05-07T06:23:09;6.82;;;3.20;;
66802;SDS011;53705;49.860;8.744;2023-05-07T06:25:37;6.50;;;4.55;;
66802;SDS011;53705;49.860;8.744;2023-05-07T06:28:05;7.15;;;3.45;;
66802;SDS011;53705;49.860;8.744;2023-05-07T06:30:39;5.53;;;4.03;;
66802;SDS011;53705;49.860;8.744;2023-05-07T06:33:07;5.80;;;2.33;;
66802;SDS011;53705;49.860;8.744;2023-05-07T06:35:36;5.18;;;2.03;;
66802;SDS011;53705;49.860;8.744;2023-05-07T06:38:04;5.63;;;2.70;;
66802;SDS011;53705;49.860;8.744;2023-05-07T06:40:32;4.32;;;1.75;;
66802;SDS011;53705;49.860;8.744;2023-05-07T06:43:00;4.13;;;2.50;;
66802;SDS011;53705;49.860;8.744;2023-05-07T06:45:35;5.78;;;2.95;;
66802;SDS011;53705;49.860;8.744;2023-05-07T06:48:06;3.33;;;1.50;;
66802;SDS011;53705;49.860;8.744;2023-05-07T06:53:11;7.57;;;2.83;;
66802;SDS011;53705;49.860;8.744;2023-05-07T06:55:40;3.67;;;1.60;;
66802;SDS011;53705;49.860;8.744;2023-05-07T06:58:10;4.40;;;1.77;;
66802;SDS011;53705;49.860;8.744;2023-05-07T07:00:38;5.60;;;3.33;;
66802;SDS011;53705;49.860;8.744;2023-05-07T07:03:09;4.38;;;2.17;;
66802;SDS011;53705;49.860;8.744;2023-05-07T07:05:38;5.53;;;2.15;;
66802;SDS011;53705;49.860;8.744;2023-05-07T07:08:06;4.20;;;2.20;;
66802;SDS011;53705;49.860;8.744;2023-05-07T07:10:35;4.10;;;2.97;;
66802;SDS011;53705;49.860;8.744;2023-05-07T07:13:03;4.75;;;2.55;;
66802;SDS011;53705;49.860;8.744;2023-05-07T07:15:31;6.75;;;2.80;;
66802;SDS011;53705;49.860;8.744;2023-05-07T07:17:59;5.30;;;2.47;;
66802;SDS011;53705;49.860;8.744;2023-05-07T07:20:29;4.00;;;2.28;;
66802;SDS011;53705;49.860;8.744;2023-05-07T07:22:57;5.05;;;1.92;;
66802;SDS011;53705;49.860;8.744;2023-05-07T07:25:26;4.63;;;2.50;;
66802;SDS011;53705;49.860;8.744;2023-05-07T07:27:54;4.85;;;2.35;;
66802;SDS011;53705;49.860;8.744;2023-05-07T07:30:25;8.07;;;3.00;;
66802;SDS011;53705;49.860;8.744;2023-05-07T07:32:53;5.13;;;3.40;;
66802;SDS011;53705;49.860;8.744;2023-05-07T07:35:21;5.15;;;2.25;;
66802;SDS011;53705;49.860;8.744;2023-05-07T07:37:53;4.30;;;2.70;;
66802;SDS011;53705;49.860;8.744;2023-05-07T07:40:20;4.15;;;2.65;;
66802;SDS011;53705;49.860;8.744;2023-05-07T07:42:48;4.38;;;2.53;;
66802;SDS011;53705;49.860;8.744;2023-05-07T07:45:16;4.40;;;2.35;;
66802;SDS011;53705;49.860;8.744;2023-05-07T07:47:46;4.18;;;2.47;;
66802;SDS011;53705;49.860;8.744;2023-05-07T07:50:14;5.38;;;4.63;;
66802;SDS011;53705;49.860;8.744;2023-05-07T07:53:04;5.22;;;2.55;;
66802;SDS011;53705;49.860;8.744;2023-05-07T07:55:34;4.70;;;2.60;;
66802;SDS011;53705;49.860;8.744;2023-05-07T07:58:05;8.02;;;4.03;;
66802;SDS011;53705;49.860;8.744;2023-05-07T08:00:33;4.07;;;2.05;;
66802;SDS011;53705;49.860;8.744;2023-05-07T08:03:01;4.72;;;2.60;;
66802;SDS011;53705;49.860;8.744;2023-05-07T08:05:34;5.28;;;2.72;;
66802;SDS011;53705;49.860;8.744;2023-05-07T08:08:05;5.50;;;2.20;;
66802;SDS011;53705;49.860;8.744;2023-05-07T08:10:35;4.85;;;2.72;;
66802;SDS011;53705;49.860;8.744;2023-05-07T08:13:10;5.45;;;3.35;;
66802;SDS011;53705;49.860;8.744;2023-05-07T08:15:40;4.80;;;2.78;;
66802;SDS011;53705;49.860;8.744;2023-05-07T08:18:09;5.40;;;3.40;;
66802;SDS011;53705;49.860;8.744;2023-05-07T08:20:37;5.05;;;2.22;;
66802;SDS011;53705;49.860;8.744;2023-05-07T08:23:10;4.68;;;2.55;;
66802;SDS011;53705;49.860;8.744;2023-05-07T08:25:39;9.63;;;3.33;;
66802;SDS011;53705;49.860;8.744;2023-05-07T08:28:09;6.38;;;3.88;;
66802;SDS011;53705;49.860;8.744;2023-05-07T08:30:38;5.88;;;2.80;;
66802;SDS011;53705;49.860;8.744;2023-05-07T08:33:06;4.93;;;2.60;;
66802;SDS011;53705;49.860;8.744;2023-05-07T08:35:35;4.60;;;3.28;;
66802;SDS011;53705;49.860;8.744;2023-05-07T08:38:05;5.57;;;2.50;;
66802;SDS011;53705;49.860;8.744;2023-05-07T08:40:36;5.20;;;2.80;;
66802;SDS011;53705;49.860;8.744;2023-05-07T08:43:08;5.13;;;2.58;;
66802;SDS011;53705;49.860;8.744;2023-05-07T08:45:36;4.72;;;2.70;;
66802;SDS011;53705;49.860;8.744;2023-05-07T08:48:09;6.30;;;5.18;;
66802;SDS011;53705;49.860;8.744;2023-05-07T08:50:44;5.88;;;3.65;;
66802;SDS011;53705;49.860;8.744;2023-05-07T08:53:12;4.80;;;2.75;;
66802;SDS011;53705;49.860;8.744;2023-05-07T08:55:42;6.15;;;3.10;;
66802;SDS011;53705;49.860;8.744;2023-05-07T08:58:10;5.45;;;2.90;;
66802;SDS011;53705;49.860;8.744;2023-05-07T09:00:39;6.18;;;3.00;;
66802;SDS011;53705;49.860;8.744;2023-05-07T09:03:07;6.72;;;2.45;;
66802;SDS011;53705;49.860;8.744;2023-05-07T09:05:41;4.80;;;2.53;;
66802;SDS011;53705;49.860;8.744;2023-05-07T09:08:14;7.47;;;2.60;;
66802;SDS011;53705;49.860;8.744;2023-05-07T09:10:44;5.07;;;2.83;;
66802;SDS011;53705;49.860;8.744;2023-05-07T09:13:12;8.82;;;4.25;;
66802;SDS011;53705;49.860;8.744;2023-05-07T09:15:41;4.57;;;3.25;;
66802;SDS011;53705;49.860;8.744;2023-05-07T09:18:10;5.57;;;2.67;;
66802;SDS011;53705;49.860;8.744;2023-05-07T09:20:38;5.00;;;2.50;;
66802;SDS011;53705;49.860;8.744;2023-05-07T09:23:07;4.55;;;2.80;;
66802;SDS011;53705;49.860;8.744;2023-05-07T09:25:36;5.03;;;3.17;;
66802;SDS011;53705;49.860;8.744;2023-05-07T09:28:15;4.97;;;4.03;;
66802;SDS011;53705;49.860;8.744;2023-05-07T09:30:43;6.50;;;2.45;;
66802;SDS011;53705;49.860;8.744;2023-05-07T09:33:13;4.22;;;3.03;;
66802;SDS011;53705;49.860;8.744;2023-05-07T09:35:46;4.20;;;2.80;;
66802;SDS011;53705;49.860;8.744;2023-05-07T09:38:17;5.00;;;2.55;;
66802;SDS011;53705;49.860;8.744;2023-05-07T09:40:47;5.22;;;3.00;;
66802;SDS011;53705;49.860;8.744;2023-05-07T09:43:16;4.88;;;2.95;;
66802;SDS011;53705;49.860;8.744;2023-05-07T09:45:51;4.30;;;2.83;;
66802;SDS011;53705;49.860;8.744;2023-05-07T09:48:22;6.10;;;3.03;;
66802;SDS011;53705;49.860;8.744;2023-05-07T09:50:53;5.75;;;3.05;;
66802;SDS011;53705;49.860;8.744;2023-05-07T09:53:24;4.03;;;2.65;;
66802;SDS011;53705;49.860;8.744;2023-05-07T09:55:54;5.18;;;2.22;;
66802;SDS011;53705;49.860;8.744;2023-05-07T09:58:25;5.82;;;2.95;;
66802;SDS011;53705;49.860;8.744;2023-05-07T10:00:54;3.88;;;2.50;;
66802;SDS011;53705;49.860;8.744;2023-05-07T10:03:22;3.65;;;2.30;;
66802;SDS011;53705;49.860;8.744;2023-05-07T10:05:56;4.53;;;2.53;;
66802;SDS011;53705;49.860;8.744;2023-05-07T10:08:26;4.10;;;2.28;;
66802;SDS011;53705;49.860;8.744;2023-05-07T10:10:56;5.13;;;2.92;;
66802;SDS011;53705;49.860;8.744;2023-05-07T10:13:28;6.00;;;2.85;;
66802;SDS011;53705;49.860;8.744;2023-05-07T10:15:58;4.82;;;2.90;;
66802;SDS011;53705;49.860;8.744;2023-05-07T10:18:30;6.55;;;2.88;;
66802;SDS011;53705;49.860;8.744;2023-05-07T10:21:07;5.30;;;3.47;;
66802;SDS011;53705;49.860;8.744;2023-05-07T10:23:35;6.43;;;3.42;;
66802;SDS011;53705;49.860;8.744;2023-05-07T10:26:05;5.35;;;2.90;;
66802;SDS011;53705;49.860;8.744;2023-05-07T10:28:38;5.38;;;3.42;;
66802;SDS011;53705;49.860;8.744;2023-05-07T10:31:13;4.72;;;3.92;;
66802;SDS011;53705;49.860;8.744;2023-05-07T10:33:45;4.97;;;4.00;;
66802;SDS011;53705;49.860;8.744;2023-05-07T10:36:14;5.88;;;4.78;;
66802;SDS011;53705;49.860;8.744;2023-05-07T10:38:43;5.93;;;4.47;;
66802;SDS011;53705;49.860;8.744;2023-05-07T10:41:11;6.70;;;3.20;;
66802;SDS011;53705;49.860;8.744;2023-05-07T10:43:43;5.30;;;2.90;;
66802;SDS011;53705;49.860;8.744;2023-05-07T10:46:18;4.72;;;2.80;;
66802;SDS011;53705;49.860;8.744;2023-05-07T10:49:10;4.40;;;2.67;;
66802;SDS011;53705;49.860;8.744;2023-05-07T10:52:11;5.53;;;2.63;;
66802;SDS011;53705;49.860;8.744;2023-05-07T10:59:57;4.10;;;2.70;;
66802;SDS011;53705;49.860;8.744;2023-05-07T11:05:18;4.68;;;2.60;;
66802;SDS011;53705;49.860;8.744;2023-05-07T11:07:53;4.82;;;2.58;;
66802;SDS011;53705;49.860;8.744;2023-05-07T11:10:23;6.53;;;2.42;;
66802;SDS011;53705;49.860;8.744;2023-05-07T11:16:04;4.88;;;3.05;;
66802;SDS011;53705;49.860;8.744;2023-05-07T11:18:45;5.45;;;4.78;;
66802;SDS011;53705;49.860;8.744;2023-05-07T11:21:15;4.85;;;2.40;;
66802;SDS011;53705;49.860;8.744;2023-05-07T11:24:06;3.83;;;2.55;;
66802;SDS011;53705;49.860;8.744;2023-05-07T11:26:48;5.10;;;2.38;;
66802;SDS011;53705;49.860;8.744;2023-05-07T11:29:18;4.18;;;2.63;;
66802;SDS011;53705;49.860;8.744;2023-05-07T11:31:54;5.03;;;4.22;;
66802;SDS011;53705;49.860;8.744;2023-05-07T11:34:25;5.72;;;4.30;;
66802;SDS011;53705;49.860;8.744;2023-05-07T11:36:56;4.65;;;2.35;;
66802;SDS011;53705;49.860;8.744;2023-05-07T11:42:25;3.90;;;2.35;;
66802;SDS011;53705;49.860;8.744;2023-05-07T11:44:52;3.88;;;2.53;;
66802;SDS011;53705;49.860;8.744;2023-05-07T11:47:21;4.13;;;2.10;;
66802;SDS011;53705;49.860;8.744;2023-05-07T11:49:50;3.47;;;2.25;;
66802;SDS011;53705;49.860;8.744;2023-05-07T11:52:18;3.33;;;2.42;;
66802;SDS011;53705;49.860;8.744;2023-05-07T11:54:48;3.65;;;1.85;;
66802;SDS011;53705;49.860;8.744;2023-05-07T11:57:16;3.97;;;2.45;;
66802;SDS011;53705;49.860;8.744;2023-05-07T11:59:44;3.28;;;2.13;;
66802;SDS011;53705;49.860;8.744;2023-05-07T12:02:13;3.70;;;1.77;;
66802;SDS011;53705;49.860;8.744;2023-05-07T12:04:42;2.95;;;1.83;;
66802;SDS011;53705;49.860;8.744;2023-05-07T12:07:13;3.60;;;2.30;;
66802;SDS011;53705;49.860;8.744;2023-05-07T12:09:41;4.20;;;1.73;;
66802;SDS011;53705;49.860;8.744;2023-05-07T12:12:09;4.10;;;3.40;;
66802;SDS011;53705;49.860;8.744;2023-05-07T12:14:37;3.03;;;1.85;;
66802;SDS011;53705;49.860;8.744;2023-05-07T12:17:05;4.13;;;1.77;;
66802;SDS011;53705;49.860;8.744;2023-05-07T12:19:34;3.97;;;2.35;;
66802;SDS011;53705;49.860;8.744;2023-05-07T12:22:04;2.72;;;1.73;;
66802;SDS011;53705;49.860;8.744;2023-05-07T12:24:42;4.55;;;1.83;;
66802;SDS011;53705;49.860;8.744;2023-05-07T12:27:10;2.78;;;2.03;;
66802;SDS011;53705;49.860;8.744;2023-05-07T12:29:38;3.72;;;1.70;;
66802;SDS011;53705;49.860;8.744;2023-05-07T12:32:07;4.55;;;2.72;;
66802;SDS011;53705;49.860;8.744;2023-05-07T12:34:40;3.22;;;1.67;;
66802;SDS011;53705;49.860;8.744;2023-05-07T12:37:12;5.68;;;2.17;;
66802;SDS011;53705;49.860;8.744;2023-05-07T12:39:44;3.35;;;1.95;;
66802;SDS011;53705;49.860;8.744;2023-05-07T12:42:14;2.97;;;1.25;;
66802;SDS011;53705;49.860;8.744;2023-05-07T12:44:43;5.03;;;1.67;;
66802;SDS011;53705;49.860;8.744;2023-05-07T12:47:14;8.98;;;1.55;;
66802;SDS011;53705;49.860;8.744;2023-05-07T12:49:42;3.08;;;1.50;;
66802;SDS011;53705;49.860;8.744;2023-05-07T12:52:13;5.47;;;1.65;;
66802;SDS011;53705;49.860;8.744;2023-05-07T12:54:41;4.28;;;1.27;;
66802;SDS011;53705;49.860;8.744;2023-05-07T12:57:09;2.75;;;1.48;;
66802;SDS011;53705;49.860;8.744;2023-05-07T12:59:37;3.38;;;1.55;;
66802;SDS011;53705;49.860;8.744;2023-05-07T13:02:06;2.95;;;1.15;;
66802;SDS011;53705;49.860;8.744;2023-05-07T13:04:35;3.03;;;1.52;;
66802;SDS011;53705;49.860;8.744;2023-05-07T13:07:03;3.40;;;1.70;;
66802;SDS011;53705;49.860;8.744;2023-05-07T13:09:32;3.95;;;1.83;;
66802;SDS011;53705;49.860;8.744;2023-05-07T13:12:00;2.97;;;1.45;;
66802;SDS011;53705;49.860;8.744;2023-05-07T13:14:28;3.25;;;1.52;;
66802;SDS011;53705;49.860;8.744;2023-05-07T13:16:57;3.70;;;1.58;;
66802;SDS011;53705;49.860;8.744;2023-05-07T13:19:25;4.45;;;1.02;;
66802;SDS011;53705;49.860;8.744;2023-05-07T13:21:55;2.35;;;1.20;;
66802;SDS011;53705;49.860;8.744;2023-05-07T13:24:22;4.43;;;1.00;;
66802;SDS011;53705;49.860;8.744;2023-05-07T13:26:51;2.83;;;1.55;;
66802;SDS011;53705;49.860;8.744;2023-05-07T13:29:19;3.72;;;1.83;;
66802;SDS011;53705;49.860;8.744;2023-05-07T13:31:47;3.58;;;1.20;;
66802;SDS011;53705;49.860;8.744;2023-05-07T13:34:16;2.60;;;1.20;;
66802;SDS011;53705;49.860;8.744;2023-05-07T13:36:43;2.42;;;1.13;;
66802;SDS011;53705;49.860;8.744;2023-05-07T13:39:11;3.35;;;1.40;;
66802;SDS011;53705;49.860;8.744;2023-05-07T13:41:39;3.38;;;0.90;;
66802;SDS011;53705;49.860;8.744;2023-05-07T13:44:08;3.85;;;1.45;;
66802;SDS011;53705;49.860;8.744;2023-05-07T13:46:36;4.63;;;0.70;;
66802;SDS011;53705;49.860;8.744;2023-05-07T13:49:04;6.38;;;2.08;;
66802;SDS011;53705;49.860;8.744;2023-05-07T13:51:32;2.75;;;1.00;;
66802;SDS011;53705;49.860;8.744;2023-05-07T13:53:59;4.53;;;1.35;;
66802;SDS011;53705;49.860;8.744;2023-05-07T13:56:27;2.65;;;0.75;;
66802;SDS011;53705;49.860;8.744;2023-05-07T13:58:57;3.90;;;1.02;;
66802;SDS011;53705;49.860;8.744;2023-05-07T14:01:27;7.38;;;0.70;;
66802;SDS011;53705;49.860;8.744;2023-05-07T14:03:56;3.42;;;1.25;;
66802;SDS011;53705;49.860;8.744;2023-05-07T14:06:25;2.47;;;1.15;;
66802;SDS011;53705;49.860;8.744;2023-05-07T14:08:53;3.95;;;1.42;;
66802;SDS011;53705;49.860;8.744;2023-05-07T14:11:21;2.63;;;0.82;;
66802;SDS011;53705;49.860;8.744;2023-05-07T14:13:48;8.13;;;1.25;;
66802;SDS011;53705;49.860;8.744;2023-05-07T14:16:16;4.28;;;0.90;;
66802;SDS011;53705;49.860;8.744;2023-05-07T14:18:45;4.55;;;0.90;;
66802;SDS011;53705;49.860;8.744;2023-05-07T14:21:13;4.30;;;0.85;;
66802;SDS011;53705;49.860;8.744;2023-05-07T14:23:41;3.83;;;0.98;;
66802;SDS011;53705;49.860;8.744;2023-05-07T14:26:08;3.78;;;1.45;;
66802;SDS011;53705;49.860;8.744;2023-05-07T14:28:36;3.25;;;1.15;;
66802;SDS011;53705;49.860;8.744;2023-05-07T14:31:05;2.40;;;1.10;;
66802;SDS011;53705;49.860;8.744;2023-05-07T14:33:33;3.20;;;1.15;;
66802;SDS011;53705;49.860;8.744;2023-05-07T14:36:03;4.38;;;2.63;;
66802;SDS011;53705;49.860;8.744;2023-05-07T14:38:31;2.45;;;1.13;;
66802;SDS011;53705;49.860;8.744;2023-05-07T14:40:59;2.75;;;1.08;;
66802;SDS011;53705;49.860;8.744;2023-05-07T14:43:27;5.32;;;1.20;;
66802;SDS011;53705;49.860;8.744;2023-05-07T14:45:54;4.35;;;1.52;;
66802;SDS011;53705;49.860;8.744;2023-05-07T14:48:22;4.25;;;2.35;;
66802;SDS011;53705;49.860;8.744;2023-05-07T14:50:50;2.92;;;1.63;;
66802;SDS011;53705;49.860;8.744;2023-05-07T14:53:19;4.28;;;1.13;;
66802;SDS011;53705;49.860;8.744;2023-05-07T14:55:48;3.58;;;1.05;;
66802;SDS011;53705;49.860;8.744;2023-05-07T14:58:15;3.50;;;1.33;;
66802;SDS011;53705;49.860;8.744;2023-05-07T15:00:51;7.07;;;3.25;;
66802;SDS011;53705;49.860;8.744;2023-05-07T15:03:19;4.00;;;1.40;;
66802;SDS011;53705;49.860;8.744;2023-05-07T15:05:48;4.88;;;1.75;;
66802;SDS011;53705;49.860;8.744;2023-05-07T15:08:17;5.15;;;1.33;;
66802;SDS011;53705;49.860;8.744;2023-05-07T15:10:46;3.33;;;1.40;;
66802;SDS011;53705;49.860;8.744;2023-05-07T15:13:13;4.93;;;2.50;;
66802;SDS011;53705;49.860;8.744;2023-05-07T15:15:42;5.05;;;1.38;;
66802;SDS011;53705;49.860;8.744;2023-05-07T15:18:12;3.20;;;1.00;;
66802;SDS011;53705;49.860;8.744;2023-05-07T15:20:42;3.10;;;1.25;;
66802;SDS011;53705;49.860;8.744;2023-05-07T15:23:10;3.30;;;2.45;;